Time;durP1;ratioP1;P1;durP2;ratioP2;P2;SDS_P1;SDS_P2;PMS_P1;PMS_P2;Temp;Humidity;BMP_temperature;BMP_pressure;BME280_temperature;BME280_humidity;BME280_pressure;Samples;Min_cycle;Max_cycle;Signal;HPM_P1;HPM_P2
2022/09/17 00:00:57;;;;;;;8.25;0.57;;;11.40;99.90;;;;;;5012480;28;20122;-77
2022/09/17 00:03:25;;;;;;;2.92;0.70;;;11.40;99.90;;;;;;5012348;28;20033;-77
2022/09/17 00:06:04;;;;;;;1.98;0.47;;;11.40;99.90;;;;;;4994948;28;20653;-76
2022/09/17 00:08:30;;;;;;;2.83;0.70;;;11.60;99.90;;;;;;5012561;28;20030;-76
2022/09/17 00:10:56;;;;;;;0.73;0.55;;;11.50;99.90;;;;;;4993789;28;20034;-76
2022/09/17 00:13:22;;;;;;;5.07;0.77;;;11.40;99.90;;;;;;4994218;28;20040;-76
2022/09/17 00:15:48;;;;;;;0.68;0.30;;;11.50;99.90;;;;;;5011821;28;20394;-76
2022/09/17 00:18:15;;;;;;;3.08;1.90;;;11.50;99.90;;;;;;5011430;28;20420;-76
2022/09/17 00:20:46;;;;;;;0.30;0.30;;;11.50;99.90;;;;;;4993857;28;20026;-76
2022/09/17 00:23:13;;;;;;;2.80;0.63;;;11.50;99.90;;;;;;4994666;28;20498;-76
2022/09/17 00:25:42;;;;;;;1.17;0.70;;;11.40;99.90;;;;;;4994693;28;20025;-76
2022/09/17 00:28:09;;;;;;;0.50;0.50;;;11.40;99.90;;;;;;5011954;28;20030;-77
2022/09/17 00:30:37;;;;;;;0.98;0.43;;;11.50;99.90;;;;;;5011660;28;20485;-77
2022/09/17 00:33:03;;;;;;;2.03;0.90;;;11.40;99.90;;;;;;4993955;28;20072;-76
2022/09/17 00:35:29;;;;;;;6.25;0.55;;;11.40;99.90;;;;;;5011013;28;20486;-76
2022/09/17 00:37:54;;;;;;;1.58;0.75;;;11.40;99.90;;;;;;4994299;28;20394;-76
2022/09/17 00:40:20;;;;;;;0.80;0.52;;;11.30;99.90;;;;;;5011686;28;20109;-76
2022/09/17 00:42:46;;;;;;;4.38;0.50;;;11.40;99.90;;;;;;5011410;28;20108;-77
2022/09/17 00:45:12;;;;;;;4.28;0.60;;;11.30;99.90;;;;;;4977184;28;20165;-76
2022/09/17 00:47:44;;;;;;;1.33;0.68;;;11.20;99.90;;;;;;4994115;28;20064;-77
2022/09/17 00:50:24;;;;;;;1.60;1.00;;;11.30;99.90;;;;;;4994209;28;20029;-76
2022/09/17 00:53:07;;;;;;;1.67;0.95;;;11.30;99.90;;;;;;5011324;28;20025;-76
2022/09/17 00:56:02;;;;;;;2.90;0.85;;;11.20;99.90;;;;;;5011062;28;20504;-76
2022/09/17 00:58:31;;;;;;;2.58;0.65;;;11.20;99.90;;;;;;5011544;28;20046;-76
2022/09/17 01:00:57;;;;;;;0.70;0.60;;;11.20;99.90;;;;;;4993775;28;20033;-76
2022/09/17 01:03:23;;;;;;;1.77;0.30;;;11.20;99.90;;;;;;5011014;28;20034;-76
2022/09/17 01:06:27;;;;;;;0.50;0.40;;;11.10;99.90;;;;;;5002630;28;20040;-76
2022/09/17 01:09:01;;;;;;;0.40;0.40;;;11.10;99.90;;;;;;5001898;28;20030;-76
2022/09/17 01:11:53;;;;;;;0.73;0.60;;;11.10;99.90;;;;;;5011307;28;20033;-75
2022/09/17 01:14:49;;;;;;;1.23;0.75;;;11.00;99.90;;;;;;5010837;28;20034;-76
2022/09/17 01:17:52;;;;;;;1.48;0.40;;;11.00;99.90;;;;;;5005360;28;20145;-75
2022/09/17 01:21:00;;;;;;;0.30;0.25;;;11.10;99.90;;;;;;5010535;28;20029;-76
2022/09/17 01:24:07;;;;;;;2.13;1.15;;;11.00;99.90;;;;;;4992472;28;20472;-75
2022/09/17 01:27:20;;;;;;;7.03;1.05;;;11.00;99.90;;;;;;5011394;28;20038;-76
2022/09/17 01:30:06;;;;;;;0.52;0.38;;;11.20;99.90;;;;;;5010798;28;20041;-77
2022/09/17 01:32:48;;;;;;;1.85;0.50;;;11.10;99.90;;;;;;5002785;28;20038;-76
2022/09/17 01:35:59;;;;;;;9.05;1.30;;;11.10;99.90;;;;;;4974722;28;20035;-77
2022/09/17 01:38:30;;;;;;;1.95;1.05;;;11.10;99.90;;;;;;5003783;28;20034;-76
2022/09/17 01:41:32;;;;;;;0.65;0.38;;;11.10;99.90;;;;;;5010545;28;20096;-76
2022/09/17 01:44:10;;;;;;;0.65;0.30;;;11.00;99.90;;;;;;5009966;28;20494;-77
2022/09/17 01:46:45;;;;;;;7.88;0.75;;;11.10;99.90;;;;;;5011234;28;20033;-77
2022/09/17 01:49:14;;;;;;;1.05;0.40;;;11.10;99.90;;;;;;5010161;28;20030;-77
2022/09/17 01:51:45;;;;;;;2.38;0.55;;;11.10;99.90;;;;;;4993682;28;20398;-77
2022/09/17 01:54:33;;;;;;;4.20;0.50;;;11.10;99.90;;;;;;4977213;28;20034;-77
2022/09/17 01:57:11;;;;;;;1.27;0.90;;;11.10;99.90;;;;;;4994834;28;20113;-77
2022/09/17 01:59:45;;;;;;;5.03;1.58;;;11.00;99.90;;;;;;4993586;28;20022;-77
2022/09/17 02:02:37;;;;;;;2.42;0.70;;;11.00;99.90;;;;;;4992711;28;20026;-77
2022/09/17 02:05:21;;;;;;;3.08;0.80;;;11.00;99.90;;;;;;5010757;28;20492;-76
2022/09/17 02:07:58;;;;;;;6.25;1.45;;;11.00;99.90;;;;;;4994809;28;20034;-76
2022/09/17 02:10:41;;;;;;;0.95;0.50;;;11.10;99.90;;;;;;4993382;28;20044;-76
2022/09/17 02:13:21;;;;;;;0.98;0.50;;;11.10;99.90;;;;;;4993796;28;20482;-74
2022/09/17 02:15:56;;;;;;;1.00;0.65;;;11.00;99.90;;;;;;4993644;28;20030;-76
2022/09/17 02:18:49;;;;;;;5.25;1.10;;;11.00;99.90;;;;;;5009256;28;20077;-77
2022/09/17 02:21:38;;;;;;;0.77;0.32;;;11.00;99.90;;;;;;5008325;28;20065;-76
2022/09/17 02:24:30;;;;;;;2.17;0.30;;;10.90;99.90;;;;;;5001936;28;20034;-76
2022/09/17 02:27:04;;;;;;;;;;;11.00;99.90;;;;;;5009903;28;20030;-76
2022/09/17 02:29:41;;;;;;;0.90;0.65;;;10.90;99.90;;;;;;5010253;28;19917;-76
2022/09/17 02:32:07;;;;;;;9.13;1.27;;;10.90;99.90;;;;;;4996664;28;20044;-76
2022/09/17 02:34:34;;;;;;;0.90;0.45;;;10.80;99.90;;;;;;4995557;28;20038;-77
2022/09/17 02:37:00;;;;;;;0.45;0.45;;;10.90;99.90;;;;;;4996639;28;20030;-76
2022/09/17 02:39:27;;;;;;;0.82;0.43;;;10.90;99.90;;;;;;4995734;28;20021;-76
2022/09/17 02:42:21;;;;;;;0.70;0.70;;;10.90;99.90;;;;;;4996542;28;20119;-76
2022/09/17 02:45:20;;;;;;;2.65;0.77;;;10.90;99.90;;;;;;4996855;28;20529;-76
2022/09/17 02:48:01;;;;;;;1.10;0.77;;;10.90;99.90;;;;;;5013541;28;20034;-77
2022/09/17 02:50:39;;;;;;;5.57;0.60;;;10.90;99.90;;;;;;5013449;28;20030;-76
2022/09/17 02:53:21;;;;;;;8.73;1.13;;;10.80;99.90;;;;;;5013433;28;20034;-76
2022/09/17 02:56:07;;;;;;;6.32;1.30;;;10.70;99.90;;;;;;4996839;28;20044;-76
2022/09/17 02:58:53;;;;;;;0.80;0.40;;;10.80;99.90;;;;;;5013074;28;20045;-76
2022/09/17 03:01:49;;;;;;;2.97;1.35;;;10.80;99.90;;;;;;4997852;28;20026;-76
2022/09/17 03:04:19;;;;;;;3.92;1.67;;;10.80;99.90;;;;;;4995665;28;20029;-76
2022/09/17 03:06:46;;;;;;;2.03;1.42;;;10.80;99.90;;;;;;5012979;28;20026;-76
2022/09/17 03:09:14;;;;;;;5.53;0.90;;;10.70;99.90;;;;;;5011412;28;20184;-75
2022/09/17 03:11:40;;;;;;;1.15;1.00;;;10.70;99.90;;;;;;5000818;28;20109;-75
2022/09/17 03:14:06;;;;;;;0.55;0.47;;;10.70;99.90;;;;;;4993247;28;20022;-76
2022/09/17 03:16:32;;;;;;;0.40;0.40;;;10.70;99.90;;;;;;5011700;28;20052;-76
2022/09/17 03:18:58;;;;;;;1.80;0.77;;;10.70;99.90;;;;;;4982612;23;1051731;-77
2022/09/17 03:21:23;;;;;;;1.17;0.85;;;10.70;99.90;;;;;;4978303;28;20042;-78
2022/09/17 03:23:49;;;;;;;0.73;0.68;;;10.70;99.90;;;;;;4973337;28;20502;-78
2022/09/17 03:26:15;;;;;;;7.05;0.73;;;10.80;99.90;;;;;;4956658;28;20037;-78
2022/09/17 03:28:40;;;;;;;2.85;1.35;;;10.70;99.90;;;;;;4973595;28;20110;-77
2022/09/17 03:31:06;;;;;;;1.08;0.80;;;10.70;99.90;;;;;;4972728;28;20495;-79
2022/09/17 03:33:32;;;;;;;1.20;0.60;;;10.80;99.90;;;;;;4972997;28;20125;-79
2022/09/17 03:35:58;;;;;;;0.98;0.88;;;10.80;99.90;;;;;;4973797;28;20034;-78
2022/09/17 03:38:24;;;;;;;8.77;0.80;;;10.90;99.90;;;;;;4973546;28;20035;-78
2022/09/17 03:41:01;;;;;;;0.85;0.50;;;11.00;99.90;;;;;;4972475;28;20073;-78
2022/09/17 03:43:27;;;;;;;0.88;0.43;;;10.90;99.90;;;;;;4973302;28;20101;-78
2022/09/17 03:45:53;;;;;;;0.55;0.47;;;11.00;99.90;;;;;;4972474;28;20539;-79
2022/09/17 03:48:19;;;;;;;0.50;0.47;;;10.90;99.90;;;;;;4956409;28;20039;-79
2022/09/17 03:50:45;;;;;;;0.63;0.50;;;10.90;99.90;;;;;;4973009;28;20482;-79
2022/09/17 03:53:10;;;;;;;2.85;1.17;;;11.00;99.90;;;;;;4972911;28;20037;-77
2022/09/17 03:55:40;;;;;;;2.53;1.88;;;10.90;99.90;;;;;;4972952;28;20039;-77
2022/09/17 03:58:06;;;;;;;16.17;1.63;;;10.90;99.90;;;;;;4971890;28;20456;-76
2022/09/17 04:00:32;;;;;;;2.83;0.90;;;10.90;99.90;;;;;;4971757;28;20030;-77
2022/09/17 04:02:58;;;;;;;0.50;0.40;;;11.00;99.90;;;;;;4971771;28;20034;-77
2022/09/17 04:05:24;;;;;;;1.13;0.50;;;10.90;99.90;;;;;;4971878;28;20035;-77
2022/09/17 04:07:49;;;;;;;0.82;0.50;;;10.80;99.90;;;;;;4973265;28;20127;-77
2022/09/17 04:10:16;;;;;;;0.30;0.30;;;10.70;99.90;;;;;;4971561;28;20031;-77
2022/09/17 04:12:47;;;;;;;2.45;1.05;;;10.70;99.90;;;;;;4939178;29;20031;-77
2022/09/17 04:15:13;;;;;;;0.63;0.38;;;10.80;99.90;;;;;;4935621;28;20041;-77
2022/09/17 04:17:39;;;;;;;1.77;0.50;;;10.80;99.90;;;;;;4991440;28;20840;-77
2022/09/17 04:20:06;;;;;;;0.65;0.52;;;10.80;99.90;;;;;;4991139;28;20486;-78
2022/09/17 04:22:32;;;;;;;3.45;0.98;;;10.80;99.90;;;;;;4994001;28;20034;-78
2022/09/17 04:24:58;;;;;;;0.85;0.40;;;10.80;99.90;;;;;;4993958;28;20121;-78
2022/09/17 04:27:24;;;;;;;6.85;0.85;;;10.80;99.90;;;;;;4993773;28;20177;-77
2022/09/17 04:29:50;;;;;;;3.40;0.57;;;10.80;99.90;;;;;;4975154;28;20257;-77
2022/09/17 04:32:16;;;;;;;0.63;0.57;;;10.80;99.90;;;;;;4974688;28;20714;-77
2022/09/17 04:34:41;;;;;;;0.98;0.50;;;10.70;99.90;;;;;;4992047;28;20054;-77
2022/09/17 04:37:07;;;;;;;0.35;0.28;;;10.70;99.90;;;;;;4992160;28;20033;-78
2022/09/17 04:39:33;;;;;;;1.02;0.57;;;10.80;99.90;;;;;;4979917;28;20041;-77
2022/09/17 04:41:59;;;;;;;0.95;0.50;;;10.70;99.90;;;;;;4972429;28;20031;-77
2022/09/17 04:44:24;;;;;;;0.77;0.75;;;10.70;99.90;;;;;;4972414;28;20038;-77
2022/09/17 04:46:50;;;;;;;0.65;0.50;;;10.90;99.90;;;;;;4973070;28;20119;-77
2022/09/17 04:49:16;;;;;;;1.48;0.82;;;10.90;99.90;;;;;;4954709;28;20057;-77
2022/09/17 04:51:41;;;;;;;3.53;0.50;;;11.00;99.90;;;;;;4972381;28;20109;-78
2022/09/17 04:54:07;;;;;;;1.42;0.38;;;10.90;99.90;;;;;;4971616;28;20383;-78
2022/09/17 04:56:33;;;;;;;0.82;0.50;;;10.90;99.90;;;;;;4972278;28;20027;-77
2022/09/17 04:58:59;;;;;;;4.30;0.95;;;11.00;99.90;;;;;;4971971;28;20045;-79
2022/09/17 05:01:25;;;;;;;2.67;0.73;;;10.90;99.90;;;;;;4972456;28;20034;-77
2022/09/17 05:03:50;;;;;;;4.63;0.95;;;10.80;99.90;;;;;;4954954;28;20035;-77
2022/09/17 05:06:16;;;;;;;1.65;0.77;;;10.90;99.90;;;;;;4975008;28;20134;-77
2022/09/17 05:08:42;;;;;;;0.88;0.50;;;10.90;99.90;;;;;;4956964;28;20039;-77
2022/09/17 05:11:08;;;;;;;1.00;0.65;;;10.80;99.90;;;;;;4971594;28;20039;-78
2022/09/17 05:13:33;;;;;;;1.20;0.85;;;10.80;99.90;;;;;;4971293;28;20031;-78
2022/09/17 05:15:59;;;;;;;2.30;1.05;;;10.80;99.90;;;;;;4985871;28;20137;-78
2022/09/17 05:18:25;;;;;;;3.70;0.73;;;10.80;99.90;;;;;;4991758;28;20073;-77
2022/09/17 05:20:51;;;;;;;4.70;1.45;;;10.70;99.90;;;;;;4990919;28;20034;-75
2022/09/17 05:23:17;;;;;;;0.35;0.30;;;10.70;99.90;;;;;;4982107;28;20038;-76
2022/09/17 05:25:43;;;;;;;0.77;0.45;;;10.80;99.90;;;;;;4971821;28;20363;-79
2022/09/17 05:28:11;;;;;;;0.80;0.40;;;10.80;99.90;;;;;;4972475;28;20034;-74
2022/09/17 05:30:37;;;;;;;0.45;0.45;;;10.80;99.90;;;;;;4971786;28;20023;-76
2022/09/17 05:33:06;;;;;;;0.95;0.52;;;10.80;99.90;;;;;;4971451;28;20542;-75
2022/09/17 05:35:34;;;;;;;1.80;0.85;;;10.80;99.90;;;;;;4971699;28;20030;-78
2022/09/17 05:38:03;;;;;;;1.52;0.75;;;10.90;99.90;;;;;;4971497;28;20771;-74
2022/09/17 05:40:30;;;;;;;1.35;0.82;;;10.90;99.90;;;;;;4971204;28;20060;-75
2022/09/17 05:43:00;;;;;;;11.27;1.50;;;10.90;99.90;;;;;;4952706;28;20132;-74
2022/09/17 05:45:27;;;;;;;4.88;0.77;;;10.90;99.90;;;;;;4961653;28;20181;-74
2022/09/17 05:47:57;;;;;;;1.20;0.60;;;10.90;99.90;;;;;;4954533;28;20462;-75
2022/09/17 05:50:24;;;;;;;1.38;0.85;;;11.00;99.90;;;;;;4954059;28;20100;-75
2022/09/17 05:52:50;;;;;;;10.85;1.27;;;11.00;99.90;;;;;;4954222;28;20066;-74
2022/09/17 05:55:18;;;;;;;3.08;1.23;;;10.90;99.90;;;;;;4954248;28;20117;-74
2022/09/17 05:57:43;;;;;;;1.70;0.70;;;11.00;99.90;;;;;;4954432;28;20030;-75
2022/09/17 06:00:10;;;;;;;4.13;1.58;;;11.00;99.90;;;;;;4954119;28;20038;-74
2022/09/17 06:02:36;;;;;;;0.90;0.40;;;11.10;99.90;;;;;;4970158;28;20031;-75
2022/09/17 06:05:04;;;;;;;2.80;0.68;;;11.00;99.90;;;;;;4972284;28;20081;-74
2022/09/17 06:07:30;;;;;;;2.00;1.20;;;11.00;99.90;;;;;;4974964;28;20050;-74
2022/09/17 06:09:55;;;;;;;3.45;1.42;;;11.10;99.90;;;;;;4973649;28;20027;-74
2022/09/17 06:12:22;;;;;;;3.40;1.23;;;11.00;99.90;;;;;;4993920;28;20041;-74
2022/09/17 06:14:48;;;;;;;5.65;1.40;;;11.10;99.90;;;;;;4994728;28;20030;-74
2022/09/17 06:17:14;;;;;;;1.23;1.02;;;11.20;99.90;;;;;;4994857;28;20387;-74
2022/09/17 06:19:39;;;;;;;7.95;1.08;;;11.30;99.90;;;;;;4994147;28;20117;-74
2022/09/17 06:22:05;;;;;;;1.33;0.90;;;11.40;99.90;;;;;;4994469;28;20081;-74
2022/09/17 06:24:31;;;;;;;5.43;1.40;;;11.50;99.90;;;;;;4994595;28;20033;-74
2022/09/17 06:26:57;;;;;;;1.55;0.70;;;11.40;99.90;;;;;;4993127;28;20390;-74
2022/09/17 06:29:23;;;;;;;3.20;0.73;;;11.50;99.90;;;;;;4994120;28;20038;-74
2022/09/17 06:31:49;;;;;;;1.90;1.08;;;11.50;99.90;;;;;;4994339;28;20054;-75
2022/09/17 06:34:16;;;;;;;6.22;1.67;;;11.40;99.90;;;;;;4992864;28;20085;-74
2022/09/17 06:36:42;;;;;;;5.65;1.48;;;11.40;99.90;;;;;;4993207;28;20113;-73
2022/09/17 06:39:10;;;;;;;4.20;1.13;;;11.50;99.90;;;;;;4993920;28;20643;-74
2022/09/17 06:41:37;;;;;;;7.13;0.95;;;11.50;99.90;;;;;;4994411;28;20034;-74
2022/09/17 06:44:03;;;;;;;4.97;1.25;;;11.50;99.90;;;;;;4992524;28;20030;-75
2022/09/17 06:46:29;;;;;;;0.90;0.63;;;11.50;99.90;;;;;;4994277;28;20080;-75
2022/09/17 06:48:55;;;;;;;1.27;0.75;;;11.40;99.90;;;;;;4993664;28;20042;-74
2022/09/17 06:51:21;;;;;;;1.15;0.95;;;11.40;99.90;;;;;;4992970;28;20505;-75
2022/09/17 06:53:47;;;;;;;1.73;0.55;;;11.40;99.90;;;;;;4992528;28;20497;-74
2022/09/17 06:56:13;;;;;;;3.03;0.88;;;11.50;99.90;;;;;;4994131;28;20023;-74
2022/09/17 06:58:42;;;;;;;2.42;0.85;;;11.40;99.90;;;;;;4994086;28;20037;-75
2022/09/17 07:01:10;;;;;;;7.10;1.15;;;11.30;99.90;;;;;;4994027;28;20767;-74
2022/09/17 07:03:36;;;;;;;3.72;1.13;;;11.30;99.90;;;;;;4992407;28;20030;-75
2022/09/17 07:06:02;;;;;;;2.85;1.67;;;11.40;99.90;;;;;;4994128;28;20034;-75
2022/09/17 07:08:30;;;;;;;2.67;0.73;;;11.50;99.90;;;;;;4976340;28;20037;-75
2022/09/17 07:10:57;;;;;;;4.63;0.68;;;11.60;99.90;;;;;;4984683;28;20101;-74
2022/09/17 07:13:24;;;;;;;4.78;1.42;;;11.60;99.90;;;;;;4972084;28;20113;-69
2022/09/17 07:15:58;;;;;;;2.28;0.82;;;11.80;99.90;;;;;;4955593;28;20109;-72
2022/09/17 07:18:25;;;;;;;3.20;0.80;;;11.80;99.90;;;;;;4956966;28;20125;-74
2022/09/17 07:20:57;;;;;;;2.90;0.73;;;12.00;99.90;;;;;;4953870;28;20062;-75
2022/09/17 07:23:25;;;;;;;6.40;1.23;;;12.10;99.90;;;;;;4966528;28;20428;-76
2022/09/17 07:25:57;;;;;;;5.18;1.50;;;12.10;99.90;;;;;;4956511;28;20030;-76
2022/09/17 07:28:24;;;;;;;4.20;1.73;;;12.00;99.90;;;;;;4971798;28;20687;-77
2022/09/17 07:30:51;;;;;;;3.70;2.13;;;11.90;99.90;;;;;;4958089;28;20110;-74
2022/09/17 07:33:22;;;;;;;7.90;1.52;;;11.90;99.90;;;;;;4988424;28;20112;-75
2022/09/17 07:35:58;;;;;;;4.35;1.40;;;12.00;99.90;;;;;;4988468;28;20030;-77
2022/09/17 07:38:25;;;;;;;1.88;0.95;;;12.00;99.90;;;;;;4971956;28;20070;-77
2022/09/17 07:41:06;;;;;;;12.52;1.20;;;12.00;99.90;;;;;;4973222;28;20026;-76
2022/09/17 07:43:34;;;;;;;2.42;0.93;;;12.20;99.90;;;;;;4971886;28;20195;-76
2022/09/17 07:46:02;;;;;;;6.53;1.73;;;12.30;99.90;;;;;;4970620;28;20037;-75
2022/09/17 07:48:29;;;;;;;4.60;0.65;;;12.40;99.90;;;;;;4973176;28;20194;-76
2022/09/17 07:50:56;;;;;;;2.65;0.88;;;12.60;99.90;;;;;;4971778;28;20073;-76
2022/09/17 07:53:22;;;;;;;4.88;1.80;;;12.70;99.90;;;;;;4955650;28;20050;-77
2022/09/17 07:55:58;;;;;;;11.80;1.20;;;12.80;99.90;;;;;;4973376;28;20069;-76
2022/09/17 07:58:34;;;;;;;1.08;0.55;;;12.90;99.90;;;;;;4955856;28;20031;-76
2022/09/17 08:01:07;;;;;;;4.35;1.35;;;12.80;99.90;;;;;;4972978;28;20478;-74
2022/09/17 08:03:34;;;;;;;2.55;0.63;;;12.90;99.90;;;;;;4955530;28;20034;-72
2022/09/17 08:06:13;;;;;;;3.80;0.85;;;13.00;99.90;;;;;;4968108;28;20659;-76
2022/09/17 08:08:42;;;;;;;2.42;0.68;;;13.10;99.90;;;;;;4969115;28;20515;-76
2022/09/17 08:11:15;;;;;;;1.50;0.50;;;13.10;99.90;;;;;;4967158;28;20042;-77
2022/09/17 08:13:41;;;;;;;1.50;0.60;;;13.30;99.90;;;;;;4990595;28;20037;-76
2022/09/17 08:16:14;;;;;;;1.35;0.63;;;13.30;99.90;;;;;;4992453;28;20053;-76
2022/09/17 08:18:42;;;;;;;2.20;0.82;;;13.40;99.90;;;;;;4991538;28;20038;-75
2022/09/17 08:21:14;;;;;;;1.58;0.82;;;13.50;99.90;;;;;;4980095;28;20037;-76
2022/09/17 08:23:42;;;;;;;1.52;0.55;;;13.50;99.90;;;;;;4971367;28;20034;-76
2022/09/17 08:26:17;;;;;;;1.42;0.75;;;13.50;99.90;;;;;;4972799;28;20038;-76
2022/09/17 08:28:48;;;;;;;1.48;0.68;;;13.60;99.90;;;;;;4984748;28;20027;-77
2022/09/17 08:31:17;;;;;;;0.88;0.57;;;13.60;99.90;;;;;;4991059;28;20022;-75
2022/09/17 08:33:44;;;;;;;15.27;1.48;;;13.70;99.90;;;;;;4990814;28;20029;-76
2022/09/17 08:36:12;;;;;;;3.30;1.25;;;13.50;99.90;;;;;;4992068;28;20034;-75
2022/09/17 08:38:39;;;;;;;1.77;0.40;;;13.50;99.90;;;;;;4989915;28;20037;-75
2022/09/17 08:41:39;;;;;;;8.35;1.00;;;13.70;99.90;;;;;;4953140;28;20034;-76
2022/09/17 08:44:38;;;;;;;2.95;1.02;;;13.80;99.90;;;;;;4969185;28;20594;-75
2022/09/17 08:47:17;;;;;;;3.35;0.50;;;14.00;99.90;;;;;;4955337;28;20042;-77
2022/09/17 08:49:57;;;;;;;8.10;0.88;;;14.30;99.90;;;;;;4954845;28;20054;-76
2022/09/17 08:52:45;;;;;;;0.80;0.50;;;14.30;99.90;;;;;;4955277;28;20097;-74
2022/09/17 08:55:43;;;;;;;1.63;0.90;;;14.10;99.90;;;;;;4972617;28;20049;-76
2022/09/17 08:58:29;;;;;;;4.38;0.73;;;14.20;99.90;;;;;;4955143;28;20050;-76
2022/09/17 09:01:19;;;;;;;3.83;0.60;;;14.10;99.90;;;;;;4971936;28;20035;-76
2022/09/17 09:04:18;;;;;;;4.53;0.97;;;14.10;99.90;;;;;;4971768;28;20027;-76
2022/09/17 09:07:17;;;;;;;3.33;0.70;;;14.30;99.90;;;;;;4955023;28;20031;-76
2022/09/17 09:10:16;;;;;;;1.70;0.45;;;14.60;99.90;;;;;;4952154;28;20050;-76
2022/09/17 09:12:44;;;;;;;1.70;0.52;;;14.70;99.90;;;;;;4970532;28;20546;-76
2022/09/17 09:15:39;;;;;;;2.00;0.47;;;14.80;99.90;;;;;;4969936;28;20113;-76
2022/09/17 09:21:27;;;;;;;7.82;0.47;;;14.70;99.90;;;;;;4975554;28;20070;-70
2022/09/17 09:24:21;;;;;;;0.47;0.30;;;14.60;99.90;;;;;;4966001;28;20147;-70
2022/09/17 09:27:00;;;;;;;1.55;0.68;;;14.60;99.90;;;;;;4972065;28;20443;-70
2022/09/17 09:30:02;;;;;;;0.65;0.40;;;14.50;99.90;;;;;;4970880;28;20031;-70
2022/09/17 09:33:04;;;;;;;6.65;0.90;;;14.40;99.90;;;;;;4970189;28;20042;-71
2022/09/17 09:35:33;;;;;;;;;;;14.40;99.90;;;;;;4972228;28;20046;-70
2022/09/17 09:38:08;;;;;;;1.20;0.20;;;14.60;99.90;;;;;;4971977;28;19910;-71
2022/09/17 09:41:08;;;;;;;0.00;0.00;;;14.80;99.90;;;;;;4974291;28;20082;-70
2022/09/17 09:43:44;;;;;;;5.68;0.75;;;15.20;99.90;;;;;;4975266;28;20031;-72
2022/09/17 09:46:43;;;;;;;5.60;0.55;;;15.40;99.90;;;;;;4975608;28;20037;-72
2022/09/17 09:49:42;;;;;;;1.27;0.57;;;15.60;99.90;;;;;;4975016;28;20034;-72
2022/09/17 09:52:33;;;;;;;9.40;1.25;;;15.90;99.90;;;;;;4974972;28;20038;-72
2022/09/17 09:55:29;;;;;;;3.50;0.57;;;15.70;99.90;;;;;;4970438;28;20028;-71
2022/09/17 09:58:16;;;;;;;3.65;0.60;;;15.60;99.90;;;;;;4957434;28;20035;-72
2022/09/17 10:00:42;;;;;;;1.35;0.40;;;15.70;99.60;;;;;;4983258;28;20479;-71
2022/09/17 10:03:20;;;;;;;3.15;1.10;;;15.70;99.60;;;;;;4988286;28;20530;-71
2022/09/17 10:06:02;;;;;;;1.48;0.52;;;15.80;98.90;;;;;;4988083;28;20167;-71
2022/09/17 10:08:31;;;;;;;8.20;0.60;;;15.90;99.10;;;;;;4973889;28;20133;-72
2022/09/17 10:10:58;;;;;;;5.47;0.30;;;15.80;99.30;;;;;;4974179;28;20114;-72
2022/09/17 10:13:26;;;;;;;7.22;0.82;;;15.90;99.50;;;;;;4974639;28;20652;-72
2022/09/17 10:15:52;;;;;;;3.63;1.08;;;15.80;99.40;;;;;;4974791;28;20113;-72
2022/09/17 10:18:24;;;;;;;3.55;0.40;;;15.70;99.00;;;;;;4990277;28;20526;-72
2022/09/17 10:20:58;;;;;;;8.10;0.57;;;15.30;99.90;;;;;;4982813;28;20042;-71
2022/09/17 10:23:28;;;;;;;0.30;0.20;;;15.30;99.90;;;;;;5008947;28;20409;-72
2022/09/17 10:25:55;;;;;;;5.00;0.77;;;15.20;99.90;;;;;;5009506;28;20022;-77
2022/09/17 10:28:31;;;;;;;1.95;0.65;;;15.40;99.90;;;;;;5007379;28;20110;-69
2022/09/17 10:31:04;;;;;;;1.80;0.80;;;15.70;99.90;;;;;;4974647;28;20034;-69
2022/09/17 10:33:33;;;;;;;0.65;0.28;;;16.10;99.90;;;;;;4974558;28;20109;-69
2022/09/17 10:36:03;;;;;;;3.30;0.40;;;16.40;98.90;;;;;;4990841;28;20029;-70
2022/09/17 10:38:45;;;;;;;0.65;0.35;;;16.60;98.20;;;;;;4974823;28;20038;-79
2022/09/17 10:41:22;;;;;;;0.80;0.38;;;16.80;97.80;;;;;;4974811;28;20031;-72
2022/09/17 10:43:49;;;;;;;2.67;0.35;;;16.80;97.70;;;;;;4980931;28;20035;-69
2022/09/17 10:46:24;;;;;;;1.17;0.57;;;17.10;97.00;;;;;;4955505;28;20043;-70
2022/09/17 10:49:19;;;;;;;8.07;0.70;;;17.00;97.00;;;;;;4954853;29;20039;-71
2022/09/17 10:51:45;;;;;;;1.77;0.20;;;16.80;96.90;;;;;;4984834;28;20042;-70
2022/09/17 10:55:06;;;;;;;5.95;0.68;;;16.50;97.40;;;;;;4993598;28;20161;-70
2022/09/17 10:57:35;;;;;;;;;;;16.50;97.90;;;;;;4994523;28;20038;-70
2022/09/17 11:00:32;;;;;;;0.55;0.30;;;16.30;97.40;;;;;;4993036;28;19921;-68
2022/09/17 11:03:29;;;;;;;3.60;0.52;;;16.10;97.70;;;;;;4991821;28;20081;-71
2022/09/17 11:06:21;;;;;;;0.70;0.40;;;16.00;97.80;;;;;;4993721;28;20042;-71
2022/09/17 11:08:52;;;;;;;1.30;0.40;;;16.00;97.10;;;;;;5008205;28;20118;-70
2022/09/17 11:12:27;;;;;;;3.10;0.70;;;16.00;97.30;;;;;;4983250;28;20043;-70
2022/09/17 11:15:19;;;;;;;2.40;0.43;;;16.10;97.00;;;;;;4973277;28;20338;-69
2022/09/17 11:18:09;;;;;;;3.67;1.25;;;16.00;97.80;;;;;;4973762;28;20449;-70
2022/09/17 11:20:57;;;;;;;1.98;1.10;;;15.60;98.80;;;;;;4979562;28;20042;-69
2022/09/17 11:24:03;;;;;;;1.92;0.20;;;15.40;99.90;;;;;;4993171;28;20121;-72
2022/09/17 11:26:39;;;;;;;0.30;0.28;;;15.50;99.00;;;;;;4993496;28;20109;-69
2022/09/17 11:29:46;;;;;;;3.97;0.73;;;15.50;99.60;;;;;;5007300;28;20030;-70
2022/09/17 11:32:48;;;;;;;0.63;0.20;;;15.90;99.10;;;;;;4993071;28;20045;-70
2022/09/17 11:35:29;;;;;;;0.75;0.35;;;16.20;98.00;;;;;;5006946;28;20439;-71
2022/09/17 11:38:12;;;;;;;0.00;0.00;;;16.20;98.10;;;;;;4993291;28;20034;-70
2022/09/17 11:41:05;;;;;;;0.13;0.13;;;16.40;97.60;;;;;;5006836;28;20026;-70
2022/09/17 11:43:34;;;;;;;3.00;0.75;;;16.30;98.10;;;;;;5007348;28;20042;-72
2022/09/17 11:46:42;;;;;;;3.95;0.93;;;16.40;97.30;;;;;;4992878;28;20030;-69
2022/09/17 11:49:37;;;;;;;2.58;0.40;;;16.30;97.70;;;;;;5006897;28;20030;-69
2022/09/17 11:52:31;;;;;;;0.38;0.20;;;16.10;98.00;;;;;;4986809;28;20117;-68
2022/09/17 11:55:30;;;;;;;0.10;0.10;;;16.20;97.40;;;;;;4987192;28;20027;-70
2022/09/17 11:58:07;;;;;;;0.70;0.43;;;16.20;97.50;;;;;;4973690;28;20041;-69
2022/09/17 12:00:41;;;;;;;0.47;0.20;;;16.30;97.30;;;;;;4983546;28;20037;-69
2022/09/17 12:03:22;;;;;;;2.42;0.90;;;16.30;97.50;;;;;;4952896;28;20035;-68
2022/09/17 12:05:59;;;;;;;2.28;0.20;;;16.10;98.10;;;;;;4952417;28;20043;-70
2022/09/17 12:08:56;;;;;;;3.15;0.52;;;16.30;97.30;;;;;;4952747;28;20051;-69
2022/09/17 12:11:44;;;;;;;1.17;0.63;;;16.40;97.70;;;;;;4963095;28;20039;-70
2022/09/17 12:14:38;;;;;;;6.75;0.65;;;16.40;97.70;;;;;;4972767;28;20528;-69
2022/09/17 12:17:05;;;;;;;5.47;0.68;;;16.50;97.60;;;;;;4972772;28;20045;-69
2022/09/17 12:19:41;;;;;;;2.95;0.22;;;16.60;97.30;;;;;;4987422;28;20384;-68
2022/09/17 12:22:23;;;;;;;0.90;0.17;;;16.40;97.60;;;;;;5005730;28;20038;-69
2022/09/17 12:24:51;;;;;;;2.25;0.57;;;16.00;98.20;;;;;;5006202;28;20058;-70
2022/09/17 12:27:29;;;;;;;1.45;0.32;;;16.50;97.60;;;;;;5006852;28;20037;-70
2022/09/17 12:30:02;;;;;;;2.92;0.45;;;17.00;96.20;;;;;;5006874;28;20093;-69
2022/09/17 12:32:52;;;;;;;1.60;0.15;;;17.30;96.20;;;;;;5006839;28;20038;-69
2022/09/17 12:36:21;;;;;;;0.40;0.20;;;16.90;97.40;;;;;;5006639;28;20038;-70
2022/09/17 12:39:04;;;;;;;0.38;0.20;;;17.00;97.50;;;;;;4986286;28;20054;-69
2022/09/17 12:41:54;;;;;;;3.15;0.47;;;17.60;95.40;;;;;;4991813;28;20034;-69
2022/09/17 12:44:32;;;;;;;0.20;0.10;;;17.80;94.30;;;;;;5005522;28;20045;-68
2022/09/17 12:47:34;;;;;;;0.98;0.30;;;18.10;93.80;;;;;;5006962;28;20042;-70
2022/09/17 12:50:37;;;;;;;3.30;0.20;;;17.90;94.20;;;;;;4991014;28;20125;-70
2022/09/17 12:53:33;;;;;;;0.80;0.57;;;17.70;94.50;;;;;;4991591;28;20041;-69
2022/09/17 12:56:39;;;;;;;0.52;0.20;;;18.50;94.70;;;;;;4991819;28;20096;-70
2022/09/17 12:59:19;;;;;;;0.63;0.20;;;18.00;94.50;;;;;;4991294;28;20506;-69
2022/09/17 13:01:54;;;;;;;0.32;0.32;;;17.90;95.10;;;;;;4990999;28;20483;-71
2022/09/17 13:04:58;;;;;;;2.63;0.40;;;18.00;95.10;;;;;;4991328;28;20027;-69
2022/09/17 13:07:38;;;;;;;2.13;0.60;;;18.10;95.80;;;;;;4991222;28;20121;-70
2022/09/17 13:10:22;;;;;;;0.47;0.20;;;17.50;96.70;;;;;;4990736;28;20150;-70
2022/09/17 13:13:19;;;;;;;0.45;0.17;;;17.30;96.30;;;;;;4971551;28;20042;-70
2022/09/17 13:16:10;;;;;;;0.52;0.20;;;17.50;96.80;;;;;;4987240;28;20062;-70
2022/09/17 13:19:08;;;;;;;0.55;0.43;;;17.20;95.80;;;;;;4970269;28;20131;-69
2022/09/17 13:21:45;;;;;;;3.15;0.63;;;17.40;95.50;;;;;;4964376;28;21120;-70
2022/09/17 13:24:18;;;;;;;3.30;0.20;;;17.30;95.70;;;;;;4976275;28;20038;-70
2022/09/17 13:26:45;;;;;;;0.55;0.28;;;18.10;95.50;;;;;;4974230;28;20492;-70
2022/09/17 13:29:12;;;;;;;2.72;0.40;;;18.50;94.50;;;;;;4966600;28;20515;-70
2022/09/17 13:31:38;;;;;;;0.65;0.60;;;18.40;93.90;;;;;;4966902;28;20163;-70
2022/09/17 13:34:31;;;;;;;3.10;0.40;;;18.10;94.40;;;;;;4966413;28;20118;-70
2022/09/17 13:37:03;;;;;;;0.47;0.30;;;18.30;94.10;;;;;;4971606;28;20552;-70